sensor_id;sensor_type;location;lat;lon;timestamp;temperature;humidity
22153;DHT22;11242;50.536;12.688;2023-04-19T00:01:24;6.90;99.90
22153;DHT22;11242;50.536;12.688;2023-04-19T00:03:50;6.90;99.90
22153;DHT22;11242;50.536;12.688;2023-04-19T00:06:16;6.90;99.90
22153;DHT22;11242;50.536;12.688;2023-04-19T00:08:42;6.90;99.90
22153;DHT22;11242;50.536;12.688;2023-04-19T00:11:08;6.90;99.90
22153;DHT22;11242;50.536;12.688;2023-04-19T00:13:34;6.90;99.90
22153;DHT22;11242;50.536;12.688;2023-04-19T00:16:00;6.90;99.90
22153;DHT22;11242;50.536;12.688;2023-04-19T00:18:26;6.90;99.90
22153;DHT22;11242;50.536;12.688;2023-04-19T00:20:51;7.00;99.90
22153;DHT22;11242;50.536;12.688;2023-04-19T00:23:17;7.00;99.90
22153;DHT22;11242;50.536;12.688;2023-04-19T00:25:44;7.00;99.90
22153;DHT22;11242;50.536;12.688;2023-04-19T00:28:10;7.00;99.90
22153;DHT22;11242;50.536;12.688;2023-04-19T00:30:36;7.00;99.90
22153;DHT22;11242;50.536;12.688;2023-04-19T00:33:01;7.00;99.90
22153;DHT22;11242;50.536;12.688;2023-04-19T00:35:27;7.00;99.90
22153;DHT22;11242;50.536;12.688;2023-04-19T00:37:53;7.00;99.90
22153;DHT22;11242;50.536;12.688;2023-04-19T00:40:18;7.00;99.90
22153;DHT22;11242;50.536;12.688;2023-04-19T00:42:44;7.00;99.90
22153;DHT22;11242;50.536;12.688;2023-04-19T00:45:11;7.00;99.90
22153;DHT22;11242;50.536;12.688;2023-04-19T00:47:37;7.00;99.90
22153;DHT22;11242;50.536;12.688;2023-04-19T00:50:03;7.00;99.90
22153;DHT22;11242;50.536;12.688;2023-04-19T00:52:29;7.00;99.90
22153;DHT22;11242;50.536;12.688;2023-04-19T00:54:57;7.00;99.90
22153;DHT22;11242;50.536;12.688;2023-04-19T00:57:23;6.90;99.90
22153;DHT22;11242;50.536;12.688;2023-04-19T00:59:50;6.90;99.90
22153;DHT22;11242;50.536;12.688;2023-04-19T01:02:16;6.90;99.90
22153;DHT22;11242;50.536;12.688;2023-04-19T01:04:42;6.90;99.90
22153;DHT22;11242;50.536;12.688;2023-04-19T01:07:08;6.90;99.90
22153;DHT22;11242;50.536;12.688;2023-04-19T01:09:33;6.80;99.90
22153;DHT22;11242;50.536;12.688;2023-04-19T01:12:00;6.80;99.90
22153;DHT22;11242;50.536;12.688;2023-04-19T01:14:26;6.80;99.90
22153;DHT22;11242;50.536;12.688;2023-04-19T01:16:51;6.80;99.90
22153;DHT22;11242;50.536;12.688;2023-04-19T01:19:18;6.80;99.90
22153;DHT22;11242;50.536;12.688;2023-04-19T01:21:44;6.80;99.90
22153;DHT22;11242;50.536;12.688;2023-04-19T01:24:10;6.70;99.90
22153;DHT22;11242;50.536;12.688;2023-04-19T01:26:36;6.70;99.90
22153;DHT22;11242;50.536;12.688;2023-04-19T01:29:02;6.70;99.90
22153;DHT22;11242;50.536;12.688;2023-04-19T01:31:27;6.70;99.90
22153;DHT22;11242;50.536;12.688;2023-04-19T01:33:53;6.70;99.90
22153;DHT22;11242;50.536;12.688;2023-04-19T01:36:19;6.70;99.90
22153;DHT22;11242;50.536;12.688;2023-04-19T01:38:44;6.70;99.90
22153;DHT22;11242;50.536;12.688;2023-04-19T01:41:12;6.60;99.90
22153;DHT22;11242;50.536;12.688;2023-04-19T01:43:38;6.60;99.90
22153;DHT22;11242;50.536;12.688;2023-04-19T01:46:03;6.60;99.90
22153;DHT22;11242;50.536;12.688;2023-04-19T01:48:29;6.60;99.90
22153;DHT22;11242;50.536;12.688;2023-04-19T01:50:54;6.50;99.90
22153;DHT22;11242;50.536;12.688;2023-04-19T01:53:20;6.60;99.90
22153;DHT22;11242;50.536;12.688;2023-04-19T01:55:46;6.60;99.90
22153;DHT22;11242;50.536;12.688;2023-04-19T01:58:12;6.50;99.90
22153;DHT22;11242;50.536;12.688;2023-04-19T02:00:37;6.50;99.90
22153;DHT22;11242;50.536;12.688;2023-04-19T02:03:03;6.50;99.90
22153;DHT22;11242;50.536;12.688;2023-04-19T02:05:28;6.60;99.90
22153;DHT22;11242;50.536;12.688;2023-04-19T02:07:54;6.50;99.90
22153;DHT22;11242;50.536;12.688;2023-04-19T02:10:20;6.60;99.90
22153;DHT22;11242;50.536;12.688;2023-04-19T02:12:45;6.50;99.90
22153;DHT22;11242;50.536;12.688;2023-04-19T02:15:11;6.50;99.90
22153;DHT22;11242;50.536;12.688;2023-04-19T02:17:36;6.60;99.90
22153;DHT22;11242;50.536;12.688;2023-04-19T02:20:04;6.50;99.90
22153;DHT22;11242;50.536;12.688;2023-04-19T02:22:30;6.40;99.90
22153;DHT22;11242;50.536;12.688;2023-04-19T02:24:55;6.40;99.90
22153;DHT22;11242;50.536;12.688;2023-04-19T02:27:28;6.40;99.90
22153;DHT22;11242;50.536;12.688;2023-04-19T02:29:53;6.40;99.90
22153;DHT22;11242;50.536;12.688;2023-04-19T02:32:19;6.40;99.90
22153;DHT22;11242;50.536;12.688;2023-04-19T02:34:45;6.40;99.90
22153;DHT22;11242;50.536;12.688;2023-04-19T02:37:10;6.30;99.90
22153;DHT22;11242;50.536;12.688;2023-04-19T02:39:36;6.30;99.90
22153;DHT22;11242;50.536;12.688;2023-04-19T02:42:01;6.30;99.90
22153;DHT22;11242;50.536;12.688;2023-04-19T02:44:27;6.20;99.90
22153;DHT22;11242;50.536;12.688;2023-04-19T02:46:53;6.20;99.90
22153;DHT22;11242;50.536;12.688;2023-04-19T02:49:19;6.20;99.90
22153;DHT22;11242;50.536;12.688;2023-04-19T02:51:46;6.20;99.90
22153;DHT22;11242;50.536;12.688;2023-04-19T02:54:13;6.20;99.90
22153;DHT22;11242;50.536;12.688;2023-04-19T02:56:40;6.10;99.90
22153;DHT22;11242;50.536;12.688;2023-04-19T02:59:05;6.10;99.90
22153;DHT22;11242;50.536;12.688;2023-04-19T03:01:32;6.10;99.90
22153;DHT22;11242;50.536;12.688;2023-04-19T03:04:00;6.00;99.90
22153;DHT22;11242;50.536;12.688;2023-04-19T03:06:25;6.10;99.90
22153;DHT22;11242;50.536;12.688;2023-04-19T03:08:51;6.00;99.90
22153;DHT22;11242;50.536;12.688;2023-04-19T03:11:17;6.00;99.90
22153;DHT22;11242;50.536;12.688;2023-04-19T03:13:43;6.00;99.90
22153;DHT22;11242;50.536;12.688;2023-04-19T03:16:11;6.00;99.90
22153;DHT22;11242;50.536;12.688;2023-04-19T03:18:37;5.90;99.90
22153;DHT22;11242;50.536;12.688;2023-04-19T03:21:03;5.90;99.90
22153;DHT22;11242;50.536;12.688;2023-04-19T03:23:36;5.90;99.90
22153;DHT22;11242;50.536;12.688;2023-04-19T03:26:02;5.90;99.90
22153;DHT22;11242;50.536;12.688;2023-04-19T03:28:36;5.90;99.90
22153;DHT22;11242;50.536;12.688;2023-04-19T03:31:20;5.90;99.90
22153;DHT22;11242;50.536;12.688;2023-04-19T03:33:48;5.90;99.90
22153;DHT22;11242;50.536;12.688;2023-04-19T03:36:15;5.90;99.90
22153;DHT22;11242;50.536;12.688;2023-04-19T03:38:42;5.80;99.90
22153;DHT22;11242;50.536;12.688;2023-04-19T03:41:22;5.80;99.90
22153;DHT22;11242;50.536;12.688;2023-04-19T03:43:53;5.80;99.90
22153;DHT22;11242;50.536;12.688;2023-04-19T03:46:22;5.80;99.90
22153;DHT22;11242;50.536;12.688;2023-04-19T03:48:48;5.80;99.90
22153;DHT22;11242;50.536;12.688;2023-04-19T03:51:14;5.80;99.90
22153;DHT22;11242;50.536;12.688;2023-04-19T03:53:40;5.70;99.90
22153;DHT22;11242;50.536;12.688;2023-04-19T03:56:06;5.80;99.90
22153;DHT22;11242;50.536;12.688;2023-04-19T03:58:32;5.80;99.90
22153;DHT22;11242;50.536;12.688;2023-04-19T04:01:04;5.80;99.90
22153;DHT22;11242;50.536;12.688;2023-04-19T04:03:31;5.70;99.90
22153;DHT22;11242;50.536;12.688;2023-04-19T04:05:57;5.70;99.90
22153;DHT22;11242;50.536;12.688;2023-04-19T04:08:22;5.70;99.90
22153;DHT22;11242;50.536;12.688;2023-04-19T04:10:48;5.70;99.90
22153;DHT22;11242;50.536;12.688;2023-04-19T04:13:14;5.70;99.90
22153;DHT22;11242;50.536;12.688;2023-04-19T04:15:47;5.60;99.90
22153;DHT22;11242;50.536;12.688;2023-04-19T04:18:13;5.60;99.90
22153;DHT22;11242;50.536;12.688;2023-04-19T04:20:40;5.60;99.90
22153;DHT22;11242;50.536;12.688;2023-04-19T04:23:09;5.60;99.90
22153;DHT22;11242;50.536;12.688;2023-04-19T04:25:36;5.60;99.90
22153;DHT22;11242;50.536;12.688;2023-04-19T04:28:04;5.60;99.90
22153;DHT22;11242;50.536;12.688;2023-04-19T04:30:29;5.50;99.90
22153;DHT22;11242;50.536;12.688;2023-04-19T04:32:57;5.50;99.90
22153;DHT22;11242;50.536;12.688;2023-04-19T04:35:23;5.40;99.90
22153;DHT22;11242;50.536;12.688;2023-04-19T04:37:55;5.30;99.90
22153;DHT22;11242;50.536;12.688;2023-04-19T04:40:21;5.20;99.90
22153;DHT22;11242;50.536;12.688;2023-04-19T04:42:47;5.10;99.90
22153;DHT22;11242;50.536;12.688;2023-04-19T04:45:13;5.10;99.90
22153;DHT22;11242;50.536;12.688;2023-04-19T04:47:43;5.00;99.90
22153;DHT22;11242;50.536;12.688;2023-04-19T04:50:10;5.00;99.90
22153;DHT22;11242;50.536;12.688;2023-04-19T04:52:36;4.90;99.90
22153;DHT22;11242;50.536;12.688;2023-04-19T04:55:09;4.80;99.90
22153;DHT22;11242;50.536;12.688;2023-04-19T04:57:40;4.80;99.90
22153;DHT22;11242;50.536;12.688;2023-04-19T05:00:09;4.80;99.90
22153;DHT22;11242;50.536;12.688;2023-04-19T05:02:43;4.70;99.90
22153;DHT22;11242;50.536;12.688;2023-04-19T05:05:09;4.70;99.90
22153;DHT22;11242;50.536;12.688;2023-04-19T05:07:38;4.60;99.90
22153;DHT22;11242;50.536;12.688;2023-04-19T05:10:04;4.50;99.90
22153;DHT22;11242;50.536;12.688;2023-04-19T05:12:39;4.50;99.90
22153;DHT22;11242;50.536;12.688;2023-04-19T05:15:06;4.50;99.90
22153;DHT22;11242;50.536;12.688;2023-04-19T05:17:32;4.50;99.90
22153;DHT22;11242;50.536;12.688;2023-04-19T05:19:57;4.50;99.90
22153;DHT22;11242;50.536;12.688;2023-04-19T05:22:23;4.50;99.90
22153;DHT22;11242;50.536;12.688;2023-04-19T05:24:49;4.50;99.90
22153;DHT22;11242;50.536;12.688;2023-04-19T05:27:15;4.50;99.90
22153;DHT22;11242;50.536;12.688;2023-04-19T05:29:41;4.50;99.90
22153;DHT22;11242;50.536;12.688;2023-04-19T05:32:07;4.40;99.90
22153;DHT22;11242;50.536;12.688;2023-04-19T05:34:39;4.40;99.90
22153;DHT22;11242;50.536;12.688;2023-04-19T05:37:05;4.40;99.90
22153;DHT22;11242;50.536;12.688;2023-04-19T05:39:30;4.40;99.90
22153;DHT22;11242;50.536;12.688;2023-04-19T05:41:57;4.40;99.90
22153;DHT22;11242;50.536;12.688;2023-04-19T05:44:22;4.30;99.90
22153;DHT22;11242;50.536;12.688;2023-04-19T05:46:48;4.30;99.90
22153;DHT22;11242;50.536;12.688;2023-04-19T05:49:21;4.20;99.90
22153;DHT22;11242;50.536;12.688;2023-04-19T05:52:05;4.20;99.90
22153;DHT22;11242;50.536;12.688;2023-04-19T05:54:43;4.20;99.90
22153;DHT22;11242;50.536;12.688;2023-04-19T05:57:09;4.20;99.90
22153;DHT22;11242;50.536;12.688;2023-04-19T05:59:35;4.20;99.90
22153;DHT22;11242;50.536;12.688;2023-04-19T06:02:00;4.20;99.90
22153;DHT22;11242;50.536;12.688;2023-04-19T06:04:26;4.10;99.90
22153;DHT22;11242;50.536;12.688;2023-04-19T06:06:52;4.10;99.90
22153;DHT22;11242;50.536;12.688;2023-04-19T06:09:18;4.10;99.90
22153;DHT22;11242;50.536;12.688;2023-04-19T06:11:44;4.10;99.90
22153;DHT22;11242;50.536;12.688;2023-04-19T06:14:10;4.00;99.90
22153;DHT22;11242;50.536;12.688;2023-04-19T06:16:38;4.00;99.90
22153;DHT22;11242;50.536;12.688;2023-04-19T06:19:04;3.90;99.90
22153;DHT22;11242;50.536;12.688;2023-04-19T06:21:30;3.90;99.90
22153;DHT22;11242;50.536;12.688;2023-04-19T06:23:57;3.90;99.90
22153;DHT22;11242;50.536;12.688;2023-04-19T06:26:22;3.90;99.90
22153;DHT22;11242;50.536;12.688;2023-04-19T06:28:48;3.90;99.90
22153;DHT22;11242;50.536;12.688;2023-04-19T06:31:14;3.80;99.90
22153;DHT22;11242;50.536;12.688;2023-04-19T06:33:39;3.90;99.90
22153;DHT22;11242;50.536;12.688;2023-04-19T06:36:05;3.90;99.90
22153;DHT22;11242;50.536;12.688;2023-04-19T06:38:31;3.80;99.90
22153;DHT22;11242;50.536;12.688;2023-04-19T06:40:56;3.80;99.90
22153;DHT22;11242;50.536;12.688;2023-04-19T06:43:22;3.70;99.90
22153;DHT22;11242;50.536;12.688;2023-04-19T06:45:47;3.60;99.90
22153;DHT22;11242;50.536;12.688;2023-04-19T06:48:13;3.60;99.90
22153;DHT22;11242;50.536;12.688;2023-04-19T06:50:38;3.50;99.90
22153;DHT22;11242;50.536;12.688;2023-04-19T06:53:04;3.50;99.90
22153;DHT22;11242;50.536;12.688;2023-04-19T06:55:30;3.50;99.90
22153;DHT22;11242;50.536;12.688;2023-04-19T06:57:55;3.40;99.90
22153;DHT22;11242;50.536;12.688;2023-04-19T07:00:21;3.30;99.90
22153;DHT22;11242;50.536;12.688;2023-04-19T07:02:49;3.30;99.90
22153;DHT22;11242;50.536;12.688;2023-04-19T07:05:14;3.30;99.90
22153;DHT22;11242;50.536;12.688;2023-04-19T07:07:40;3.30;99.90
22153;DHT22;11242;50.536;12.688;2023-04-19T07:10:07;3.40;99.90
22153;DHT22;11242;50.536;12.688;2023-04-19T07:12:33;3.50;99.90
22153;DHT22;11242;50.536;12.688;2023-04-19T07:14:58;3.70;99.90
22153;DHT22;11242;50.536;12.688;2023-04-19T07:17:24;3.70;99.90
22153;DHT22;11242;50.536;12.688;2023-04-19T07:19:50;3.80;99.90
22153;DHT22;11242;50.536;12.688;2023-04-19T07:22:15;4.00;99.90
22153;DHT22;11242;50.536;12.688;2023-04-19T07:24:41;4.10;99.90
22153;DHT22;11242;50.536;12.688;2023-04-19T07:27:08;4.30;99.90
22153;DHT22;11242;50.536;12.688;2023-04-19T07:29:34;4.50;99.90
22153;DHT22;11242;50.536;12.688;2023-04-19T07:32:01;4.40;99.90
22153;DHT22;11242;50.536;12.688;2023-04-19T07:34:27;4.30;99.90
22153;DHT22;11242;50.536;12.688;2023-04-19T07:36:52;4.30;99.90
22153;DHT22;11242;50.536;12.688;2023-04-19T07:39:18;4.30;99.90
22153;DHT22;11242;50.536;12.688;2023-04-19T07:41:44;4.30;99.90
22153;DHT22;11242;50.536;12.688;2023-04-19T07:44:09;4.20;99.90
22153;DHT22;11242;50.536;12.688;2023-04-19T07:46:36;4.30;99.90
22153;DHT22;11242;50.536;12.688;2023-04-19T07:49:01;4.40;99.90
22153;DHT22;11242;50.536;12.688;2023-04-19T07:51:27;4.50;99.90
22153;DHT22;11242;50.536;12.688;2023-04-19T07:53:53;4.70;99.90
22153;DHT22;11242;50.536;12.688;2023-04-19T07:56:18;4.90;99.90
22153;DHT22;11242;50.536;12.688;2023-04-19T07:58:44;5.50;99.90
22153;DHT22;11242;50.536;12.688;2023-04-19T08:01:10;5.90;99.90
22153;DHT22;11242;50.536;12.688;2023-04-19T08:03:36;6.40;99.90
22153;DHT22;11242;50.536;12.688;2023-04-19T08:06:05;6.80;99.90
22153;DHT22;11242;50.536;12.688;2023-04-19T08:08:32;7.90;99.90
22153;DHT22;11242;50.536;12.688;2023-04-19T08:10:58;8.90;99.90
22153;DHT22;11242;50.536;12.688;2023-04-19T08:13:23;9.60;99.90
22153;DHT22;11242;50.536;12.688;2023-04-19T08:15:49;9.10;99.90
22153;DHT22;11242;50.536;12.688;2023-04-19T08:18:15;9.80;99.90
22153;DHT22;11242;50.536;12.688;2023-04-19T08:20:40;10.80;99.90
22153;DHT22;11242;50.536;12.688;2023-04-19T08:23:10;12.90;99.90
22153;DHT22;11242;50.536;12.688;2023-04-19T08:25:36;14.60;99.90
22153;DHT22;11242;50.536;12.688;2023-04-19T08:28:02;13.40;99.90
22153;DHT22;11242;50.536;12.688;2023-04-19T08:30:28;10.80;99.90
22153;DHT22;11242;50.536;12.688;2023-04-19T08:32:54;8.60;99.90
22153;DHT22;11242;50.536;12.688;2023-04-19T08:35:20;7.70;99.90
22153;DHT22;11242;50.536;12.688;2023-04-19T08:37:46;8.90;99.90
22153;DHT22;11242;50.536;12.688;2023-04-19T08:40:13;10.00;99.90
22153;DHT22;11242;50.536;12.688;2023-04-19T08:42:39;9.80;99.90
22153;DHT22;11242;50.536;12.688;2023-04-19T08:45:05;9.00;99.90
22153;DHT22;11242;50.536;12.688;2023-04-19T08:47:33;9.00;99.90
22153;DHT22;11242;50.536;12.688;2023-04-19T08:50:04;8.60;99.90
22153;DHT22;11242;50.536;12.688;2023-04-19T08:52:33;8.80;99.90
22153;DHT22;11242;50.536;12.688;2023-04-19T08:55:02;11.10;99.90
22153;DHT22;11242;50.536;12.688;2023-04-19T08:57:30;12.60;99.90
22153;DHT22;11242;50.536;12.688;2023-04-19T08:59:56;11.00;99.90
22153;DHT22;11242;50.536;12.688;2023-04-19T09:02:22;9.40;99.90
22153;DHT22;11242;50.536;12.688;2023-04-19T09:04:48;9.70;99.90
22153;DHT22;11242;50.536;12.688;2023-04-19T09:07:24;9.50;99.90
22153;DHT22;11242;50.536;12.688;2023-04-19T09:10:13;9.30;99.90
22153;DHT22;11242;50.536;12.688;2023-04-19T09:12:40;11.40;99.90
22153;DHT22;11242;50.536;12.688;2023-04-19T09:15:06;12.30;96.80
22153;DHT22;11242;50.536;12.688;2023-04-19T09:17:34;12.70;89.80
22153;DHT22;11242;50.536;12.688;2023-04-19T09:20:00;12.40;87.50
22153;DHT22;11242;50.536;12.688;2023-04-19T09:22:26;11.00;84.40
22153;DHT22;11242;50.536;12.688;2023-04-19T09:24:52;8.80;87.70
22153;DHT22;11242;50.536;12.688;2023-04-19T09:27:29;7.80;93.70
22153;DHT22;11242;50.536;12.688;2023-04-19T09:29:59;7.30;97.40
22153;DHT22;11242;50.536;12.688;2023-04-19T09:32:26;7.00;99.90
22153;DHT22;11242;50.536;12.688;2023-04-19T09:34:52;7.00;99.90
22153;DHT22;11242;50.536;12.688;2023-04-19T09:37:18;6.90;99.90
22153;DHT22;11242;50.536;12.688;2023-04-19T09:39:43;7.00;99.90
22153;DHT22;11242;50.536;12.688;2023-04-19T09:42:09;7.20;99.90
22153;DHT22;11242;50.536;12.688;2023-04-19T09:44:35;7.20;99.90
22153;DHT22;11242;50.536;12.688;2023-04-19T09:47:01;7.10;99.90
22153;DHT22;11242;50.536;12.688;2023-04-19T09:49:26;7.50;99.90
22153;DHT22;11242;50.536;12.688;2023-04-19T09:51:53;7.60;99.90
22153;DHT22;11242;50.536;12.688;2023-04-19T09:54:23;7.30;99.90
22153;DHT22;11242;50.536;12.688;2023-04-19T09:56:50;7.30;99.90
22153;DHT22;11242;50.536;12.688;2023-04-19T09:59:17;7.30;99.90
22153;DHT22;11242;50.536;12.688;2023-04-19T10:01:44;7.30;99.90
22153;DHT22;11242;50.536;12.688;2023-04-19T10:04:11;7.20;99.90
22153;DHT22;11242;50.536;12.688;2023-04-19T10:06:38;7.20;99.90
22153;DHT22;11242;50.536;12.688;2023-04-19T10:09:05;7.40;99.90
22153;DHT22;11242;50.536;12.688;2023-04-19T10:11:36;7.50;99.90
22153;DHT22;11242;50.536;12.688;2023-04-19T10:14:09;7.90;99.90
22153;DHT22;11242;50.536;12.688;2023-04-19T10:16:36;8.30;99.90
22153;DHT22;11242;50.536;12.688;2023-04-19T10:19:06;8.40;99.90
22153;DHT22;11242;50.536;12.688;2023-04-19T10:21:32;8.30;99.90
22153;DHT22;11242;50.536;12.688;2023-04-19T10:23:59;8.20;99.90
22153;DHT22;11242;50.536;12.688;2023-04-19T10:26:25;8.50;99.90
22153;DHT22;11242;50.536;12.688;2023-04-19T10:28:53;8.70;99.80
22153;DHT22;11242;50.536;12.688;2023-04-19T10:31:19;8.80;99.90
22153;DHT22;11242;50.536;12.688;2023-04-19T10:33:48;8.40;99.30
22153;DHT22;11242;50.536;12.688;2023-04-19T10:36:16;8.30;99.90
22153;DHT22;11242;50.536;12.688;2023-04-19T10:38:47;8.40;98.90
22153;DHT22;11242;50.536;12.688;2023-04-19T10:41:17;8.60;99.40
22153;DHT22;11242;50.536;12.688;2023-04-19T10:44:09;8.40;99.90
22153;DHT22;11242;50.536;12.688;2023-04-19T10:46:37;8.40;99.90
22153;DHT22;11242;50.536;12.688;2023-04-19T10:49:05;8.20;99.90
22153;DHT22;11242;50.536;12.688;2023-04-19T10:51:35;8.30;99.90
22153;DHT22;11242;50.536;12.688;2023-04-19T10:54:04;8.60;99.90
22153;DHT22;11242;50.536;12.688;2023-04-19T11:01:40;8.70;98.60
22153;DHT22;11242;50.536;12.688;2023-04-19T11:04:18;8.60;99.50
22153;DHT22;11242;50.536;12.688;2023-04-19T11:09:35;8.40;99.90
22153;DHT22;11242;50.536;12.688;2023-04-19T11:12:07;8.70;99.90
22153;DHT22;11242;50.536;12.688;2023-04-19T11:14:55;9.00;99.90
22153;DHT22;11242;50.536;12.688;2023-04-19T11:17:28;9.10;96.60
22153;DHT22;11242;50.536;12.688;2023-04-19T11:19:55;9.10;96.20
22153;DHT22;11242;50.536;12.688;2023-04-19T11:22:44;9.00;96.30
22153;DHT22;11242;50.536;12.688;2023-04-19T11:25:19;8.80;97.80
22153;DHT22;11242;50.536;12.688;2023-04-19T11:27:47;8.40;96.40
22153;DHT22;11242;50.536;12.688;2023-04-19T11:30:20;8.10;98.20
22153;DHT22;11242;50.536;12.688;2023-04-19T11:32:52;8.70;97.80
22153;DHT22;11242;50.536;12.688;2023-04-19T11:35:22;9.20;96.80
22153;DHT22;11242;50.536;12.688;2023-04-19T11:37:49;9.20;95.20
22153;DHT22;11242;50.536;12.688;2023-04-19T11:40:16;9.00;92.40
22153;DHT22;11242;50.536;12.688;2023-04-19T11:42:42;9.00;94.10
22153;DHT22;11242;50.536;12.688;2023-04-19T11:45:09;9.10;93.60
22153;DHT22;11242;50.536;12.688;2023-04-19T11:47:35;8.80;94.70
22153;DHT22;11242;50.536;12.688;2023-04-19T11:52:55;8.50;97.80
22153;DHT22;11242;50.536;12.688;2023-04-19T11:55:20;8.70;96.80
22153;DHT22;11242;50.536;12.688;2023-04-19T11:57:47;8.70;96.90
22153;DHT22;11242;50.536;12.688;2023-04-19T12:00:13;9.00;94.90
22153;DHT22;11242;50.536;12.688;2023-04-19T12:02:41;8.80;94.80
22153;DHT22;11242;50.536;12.688;2023-04-19T12:05:14;8.40;96.10
22153;DHT22;11242;50.536;12.688;2023-04-19T12:08:03;8.00;96.90
22153;DHT22;11242;50.536;12.688;2023-04-19T12:10:30;7.80;98.80
22153;DHT22;11242;50.536;12.688;2023-04-19T12:12:56;7.70;99.00
22153;DHT22;11242;50.536;12.688;2023-04-19T12:15:21;7.70;99.50
22153;DHT22;11242;50.536;12.688;2023-04-19T12:18:00;7.80;99.80
22153;DHT22;11242;50.536;12.688;2023-04-19T12:20:32;7.80;99.90
22153;DHT22;11242;50.536;12.688;2023-04-19T12:22:57;7.20;99.90
22153;DHT22;11242;50.536;12.688;2023-04-19T12:25:28;6.70;99.90
22153;DHT22;11242;50.536;12.688;2023-04-19T12:27:53;6.40;99.90
22153;DHT22;11242;50.536;12.688;2023-04-19T12:30:19;6.30;99.90
22153;DHT22;11242;50.536;12.688;2023-04-19T12:32:45;6.50;99.90
22153;DHT22;11242;50.536;12.688;2023-04-19T12:35:10;6.80;99.90
22153;DHT22;11242;50.536;12.688;2023-04-19T12:37:36;7.30;99.90
22153;DHT22;11242;50.536;12.688;2023-04-19T12:40:01;7.50;99.90
22153;DHT22;11242;50.536;12.688;2023-04-19T12:42:28;7.90;99.90
22153;DHT22;11242;50.536;12.688;2023-04-19T12:44:53;8.00;99.90
22153;DHT22;11242;50.536;12.688;2023-04-19T12:47:19;8.40;99.90
22153;DHT22;11242;50.536;12.688;2023-04-19T12:49:44;8.60;99.90
22153;DHT22;11242;50.536;12.688;2023-04-19T12:52:10;8.50;99.90
22153;DHT22;11242;50.536;12.688;2023-04-19T12:54:36;8.60;99.90
22153;DHT22;11242;50.536;12.688;2023-04-19T12:57:01;8.60;99.90
22153;DHT22;11242;50.536;12.688;2023-04-19T12:59:27;8.80;99.90
22153;DHT22;11242;50.536;12.688;2023-04-19T13:01:52;8.80;99.90
22153;DHT22;11242;50.536;12.688;2023-04-19T13:04:18;9.00;99.90
22153;DHT22;11242;50.536;12.688;2023-04-19T13:06:43;8.90;99.90
22153;DHT22;11242;50.536;12.688;2023-04-19T13:09:09;8.50;99.90
22153;DHT22;11242;50.536;12.688;2023-04-19T13:11:34;8.20;99.90
22153;DHT22;11242;50.536;12.688;2023-04-19T13:14:00;7.90;99.90
22153;DHT22;11242;50.536;12.688;2023-04-19T13:16:26;7.70;99.90
22153;DHT22;11242;50.536;12.688;2023-04-19T13:18:51;7.80;99.90
22153;DHT22;11242;50.536;12.688;2023-04-19T13:21:19;8.10;99.90
22153;DHT22;11242;50.536;12.688;2023-04-19T13:23:44;8.10;99.90
22153;DHT22;11242;50.536;12.688;2023-04-19T13:26:10;7.90;99.90
22153;DHT22;11242;50.536;12.688;2023-04-19T13:28:36;7.70;99.90
22153;DHT22;11242;50.536;12.688;2023-04-19T13:31:03;7.60;99.90
22153;DHT22;11242;50.536;12.688;2023-04-19T13:33:29;7.50;99.90
22153;DHT22;11242;50.536;12.688;2023-04-19T13:35:54;7.30;99.90
22153;DHT22;11242;50.536;12.688;2023-04-19T13:38:20;7.20;99.90
22153;DHT22;11242;50.536;12.688;2023-04-19T13:40:45;7.20;99.90
22153;DHT22;11242;50.536;12.688;2023-04-19T13:43:11;7.10;99.90
22153;DHT22;11242;50.536;12.688;2023-04-19T13:45:36;7.20;99.90
22153;DHT22;11242;50.536;12.688;2023-04-19T13:48:02;7.30;99.90
22153;DHT22;11242;50.536;12.688;2023-04-19T13:50:28;7.40;99.90
22153;DHT22;11242;50.536;12.688;2023-04-19T13:52:53;7.60;99.90
22153;DHT22;11242;50.536;12.688;2023-04-19T13:55:19;7.80;99.90
22153;DHT22;11242;50.536;12.688;2023-04-19T13:57:45;8.30;99.90
22153;DHT22;11242;50.536;12.688;2023-04-19T14:00:11;8.70;99.90
22153;DHT22;11242;50.536;12.688;2023-04-19T14:02:37;9.10;99.90
22153;DHT22;11242;50.536;12.688;2023-04-19T14:05:03;9.00;99.90
22153;DHT22;11242;50.536;12.688;2023-04-19T14:07:28;8.60;99.90
22153;DHT22;11242;50.536;12.688;2023-04-19T14:09:54;8.40;99.90
22153;DHT22;11242;50.536;12.688;2023-04-19T14:12:20;8.00;99.90
22153;DHT22;11242;50.536;12.688;2023-04-19T14:14:45;7.40;99.90
22153;DHT22;11242;50.536;12.688;2023-04-19T14:17:11;7.10;99.90
22153;DHT22;11242;50.536;12.688;2023-04-19T14:19:36;7.20;99.90
22153;DHT22;11242;50.536;12.688;2023-04-19T14:22:02;7.10;99.90
22153;DHT22;11242;50.536;12.688;2023-04-19T14:24:28;7.10;99.90
22153;DHT22;11242;50.536;12.688;2023-04-19T14:26:53;7.20;99.90
22153;DHT22;11242;50.536;12.688;2023-04-19T14:29:19;7.40;99.90
22153;DHT22;11242;50.536;12.688;2023-04-19T14:31:44;7.40;99.90
22153;DHT22;11242;50.536;12.688;2023-04-19T14:34:10;7.60;99.90
22153;DHT22;11242;50.536;12.688;2023-04-19T14:36:35;7.60;99.90
22153;DHT22;11242;50.536;12.688;2023-04-19T14:39:01;7.40;99.90
22153;DHT22;11242;50.536;12.688;2023-04-19T14:41:26;7.20;99.90
22153;DHT22;11242;50.536;12.688;2023-04-19T14:43:52;7.00;99.90
22153;DHT22;11242;50.536;12.688;2023-04-19T14:46:19;6.80;99.90
22153;DHT22;11242;50.536;12.688;2023-04-19T14:48:45;6.80;99.90
22153;DHT22;11242;50.536;12.688;2023-04-19T14:51:10;6.60;99.90
22153;DHT22;11242;50.536;12.688;2023-04-19T14:53:36;6.40;99.90
22153;DHT22;11242;50.536;12.688;2023-04-19T14:56:03;6.20;99.90
22153;DHT22;11242;50.536;12.688;2023-04-19T14:58:30;6.30;99.90
22153;DHT22;11242;50.536;12.688;2023-04-19T15:00:55;6.50;99.90
22153;DHT22;11242;50.536;12.688;2023-04-19T15:03:21;6.70;99.90
22153;DHT22;11242;50.536;12.688;2023-04-19T15:05:46;6.90;99.90
22153;DHT22;11242;50.536;12.688;2023-04-19T15:08:12;7.00;99.90
22153;DHT22;11242;50.536;12.688;2023-04-19T15:10:37;7.30;99.90
22153;DHT22;11242;50.536;12.688;2023-04-19T15:13:04;7.40;99.90
22153;DHT22;11242;50.536;12.688;2023-04-19T15:15:29;7.70;99.90
22153;DHT22;11242;50.536;12.688;2023-04-19T15:17:55;7.70;99.90
22153;DHT22;11242;50.536;12.688;2023-04-19T15:20:21;7.50;99.90
22153;DHT22;11242;50.536;12.688;2023-04-19T15:22:46;7.50;99.90
22153;DHT22;11242;50.536;12.688;2023-04-19T15:25:12;7.00;99.90
22153;DHT22;11242;50.536;12.688;2023-04-19T15:27:37;6.10;99.90
22153;DHT22;11242;50.536;12.688;2023-04-19T15:30:04;5.70;99.90
22153;DHT22;11242;50.536;12.688;2023-04-19T15:32:30;5.40;99.90
22153;DHT22;11242;50.536;12.688;2023-04-19T15:34:58;5.30;99.90
22153;DHT22;11242;50.536;12.688;2023-04-19T15:37:24;5.60;99.90
22153;DHT22;11242;50.536;12.688;2023-04-19T15:39:50;5.70;99.90